Accueil
METAR-TAF:

METAR-TAF

Aéroports :

Aéroport de Carcassonne Salvaza

Carcassonne, France

latitude: 43-13N, longitude: 002-19E, altitude: 130 m

Observation

Le bulletin a été fait il y a 33 minutes, à 09:30 UTC
Vent 14 kt de ouest/nord-ouest, variant entre ouest/sud-ouest et nord-ouest
Température 25°C
Humidité 54%
Pression 1022 hPa
Visibilité 10 km ou plus
pas de nuages en-dessous de 1500 mètres et pas de cumulonimbus.

METAR: LFMK 190930Z AUTO 29014KT 250V310 CAVOK 25/15 Q1022 TEMPO 28015G25KT

Heure: 12:03 (10:03 UTC)

Prévision

Le bulletin a été fait il y a 2 heures et 3 minutes, à 08:00 UTC
Prévision valable du 19 à 09 UTC au 20 à 09 UTC
Vent 12 kt de ouest
Visibilité 10 km ou plus
pas de nuages en-dessous de 1500 mètres et pas de cumulonimbus.
Temporairement
du 19 à 09 UTC au 19 à 12 UTC
Vent 15 kt de ouest avec des rafales jusqu'à 25 kt

TAF: LFMK 190800Z 1909/2009 28012KT CAVOK TEMPO 1909/1912 28015G25KT

Observations et prévisions météorologiques de plus de 4000 aéroports (messages METAR et TAF).

Les stations disponibles sont représentées par des disques jaunes et rouges sur la carte.

Passer la souris dessus pour voir le nom de la station.

Cliquer dessus pour voir les observations et prévisions météorologiques.

Pour changer de carte: cliquez sur les boutons verts avec une croix noire pour zoomer, sur le bouton vert avec un tiret pour effectuer un zoom arrière, ou sur les flèches vertes pour les cartes adjacentes.


METAR-TAF: